Mayo, Canada
Current Conditions -  °F | °C
As of 7:00 AM on Thursday 30 Oct 2014 (Local Time) from CYMA Reporting Station
Clear Clear  
Wind Chill: 17°   Ceiling: Unl
Heat Index: 27°   Visibility: 20mi
Dew Point: 21°   Wind: 9mph
Humidity: 80%   Direction: 30°NNE
Pressure: 29.69"   Gusts: NA
Location:  63.6°N, 135.88°W
Report Text: CYMA 301400Z 03008KT 20SM SKC M03/M06 A2969 RMK SLP088
Loading
Personal Weather Stations






























Interactive Weather Map New forecast layout! Learn more

10-Day Weather Forecast

Advertisements
Track Severe Weather on mobile